Time;durP1;ratioP1;P1;durP2;ratioP2;P2;SDS_P1;SDS_P2;PMS_P1;PMS_P2;Temp;Humidity;BMP_temperature;BMP_pressure;BME280_temperature;BME280_humidity;BME280_pressure;Samples;Min_cycle;Max_cycle;Signal;HPM_P1;HPM_P2
2021/06/08 00:01:59;;;;;;;6.50;5.90;;;20.80;64.60;;;;;;5076029;28;20795;-48
2021/06/08 00:04:25;;;;;;;6.70;6.00;;;20.70;64.80;;;;;;5076317;28;20482;-51
2021/06/08 00:06:51;;;;;;;9.60;6.43;;;20.70;65.10;;;;;;5076213;28;20557;-50
2021/06/08 00:09:19;;;;;;;7.13;6.43;;;20.60;65.50;;;;;;5076376;28;20453;-50
2021/06/08 00:11:45;;;;;;;7.33;6.37;;;20.50;65.80;;;;;;5076571;28;20457;-50
2021/06/08 00:14:11;;;;;;;7.00;6.30;;;20.50;66.10;;;;;;5076533;28;20729;-51
2021/06/08 00:16:38;;;;;;;6.53;5.90;;;20.50;66.50;;;;;;5076302;28;20508;-50
2021/06/08 00:19:05;;;;;;;6.90;5.80;;;20.40;66.90;;;;;;5076580;28;20450;-51
2021/06/08 00:21:31;;;;;;;7.87;6.07;;;20.40;67.30;;;;;;5076741;28;20773;-48
2021/06/08 00:23:57;;;;;;;6.93;6.23;;;20.40;67.70;;;;;;5078968;28;20465;-50
2021/06/08 00:26:24;;;;;;;9.30;6.40;;;20.30;68.00;;;;;;5079386;28;20481;-50
2021/06/08 00:28:50;;;;;;;8.13;5.90;;;20.30;68.30;;;;;;5079516;28;20445;-46
2021/06/08 00:31:18;;;;;;;6.90;6.07;;;20.30;68.60;;;;;;5079777;28;20448;-47
2021/06/08 00:33:47;;;;;;;7.20;5.70;;;20.30;69.20;;;;;;5079838;28;20469;-52
2021/06/08 00:36:15;;;;;;;6.17;5.57;;;20.30;69.50;;;;;;5079911;28;20462;-52
2021/06/08 00:38:41;;;;;;;7.27;6.67;;;20.30;69.80;;;;;;5080007;28;20452;-51
2021/06/08 00:41:08;;;;;;;7.83;6.37;;;20.30;70.10;;;;;;5079427;28;20443;-44
2021/06/08 00:43:35;;;;;;;6.43;5.90;;;20.20;71.00;;;;;;5080106;28;20454;-53
2021/06/08 00:46:01;;;;;;;7.53;5.70;;;20.20;71.40;;;;;;5080080;28;20892;-53
2021/06/08 00:48:27;;;;;;;6.57;5.97;;;20.20;72.00;;;;;;5079976;28;20912;-45
2021/06/08 00:50:53;;;;;;;6.63;5.93;;;20.20;72.70;;;;;;5079187;28;20450;-50
2021/06/08 00:53:21;;;;;;;6.20;5.60;;;20.10;73.60;;;;;;5079603;28;20463;-50
2021/06/08 00:55:47;;;;;;;7.80;6.57;;;20.10;73.80;;;;;;5079205;28;20446;-52
2021/06/08 00:58:13;;;;;;;7.10;6.50;;;20.00;74.60;;;;;;5079317;28;20466;-53
2021/06/08 01:00:39;;;;;;;10.20;6.17;;;20.00;75.60;;;;;;5079275;28;20446;-52
2021/06/08 01:03:06;;;;;;;5.77;5.17;;;20.00;76.60;;;;;;5079669;28;20496;-51
2021/06/08 01:05:32;;;;;;;6.73;6.13;;;19.90;77.80;;;;;;5079604;28;20859;-50
2021/06/08 01:07:58;;;;;;;6.20;5.17;;;19.90;78.80;;;;;;5079291;28;20758;-48
2021/06/08 01:10:26;;;;;;;6.97;5.80;;;19.90;79.60;;;;;;5079084;28;20779;-53
2021/06/08 01:12:52;;;;;;;10.00;6.10;;;19.90;80.10;;;;;;5079117;28;20453;-51
2021/06/08 01:15:18;;;;;;;6.83;5.80;;;19.90;81.30;;;;;;5079208;28;20450;-46
2021/06/08 01:17:44;;;;;;;6.37;5.80;;;19.90;81.70;;;;;;5079788;28;20592;-49
2021/06/08 01:20:12;;;;;;;6.37;5.77;;;19.90;82.90;;;;;;5080023;28;20450;-46
2021/06/08 01:22:39;;;;;;;7.33;6.60;;;19.90;83.40;;;;;;5079092;28;20458;-46
2021/06/08 01:25:06;;;;;;;7.07;6.00;;;19.90;85.10;;;;;;5079780;28;20487;-45
2021/06/08 01:27:35;;;;;;;6.80;6.10;;;19.90;85.70;;;;;;5079741;28;20442;-48
2021/06/08 01:30:04;;;;;;;7.10;5.37;;;19.80;86.70;;;;;;5079473;28;20453;-53
2021/06/08 01:32:32;;;;;;;8.20;6.30;;;19.80;88.10;;;;;;5079100;28;20470;-54
2021/06/08 01:34:59;;;;;;;6.33;4.97;;;19.80;89.40;;;;;;5077825;28;20913;-54
2021/06/08 01:37:25;;;;;;;6.17;5.47;;;19.70;90.20;;;;;;5066359;22;20482;-55
2021/06/08 01:39:53;;;;;;;6.47;5.63;;;19.70;90.80;;;;;;5020818;23;20490;-51
2021/06/08 01:42:20;;;;;;;6.47;5.87;;;19.70;91.20;;;;;;4999406;28;20505;-52
2021/06/08 01:44:47;;;;;;;7.37;5.80;;;19.60;91.60;;;;;;4999557;28;20511;-52
2021/06/08 01:47:14;;;;;;;5.97;5.47;;;19.60;92.20;;;;;;4999969;28;20446;-51
2021/06/08 01:49:41;;;;;;;5.93;5.40;;;19.60;92.50;;;;;;4999351;28;20442;-52
2021/06/08 01:52:18;;;;;;;10.60;6.03;;;19.60;92.90;;;;;;4999281;28;20449;-49
2021/06/08 01:54:49;;;;;;;6.33;5.63;;;19.60;93.30;;;;;;4999461;28;20426;-53
2021/06/08 01:57:20;;;;;;;7.17;6.47;;;19.60;93.80;;;;;;4999678;28;21052;-52
2021/06/08 01:59:53;;;;;;;6.77;6.17;;;19.50;94.20;;;;;;5000067;28;20442;-51
2021/06/08 02:02:27;;;;;;;8.07;6.77;;;19.50;94.60;;;;;;4999237;28;20504;-49
2021/06/08 02:05:03;;;;;;;6.60;6.00;;;19.50;94.90;;;;;;4999208;28;20509;-44
2021/06/08 02:07:36;;;;;;;7.47;5.80;;;19.40;95.50;;;;;;4999472;28;20446;-47
2021/06/08 02:10:14;;;;;;;7.07;6.40;;;19.40;96.00;;;;;;4999193;28;20568;-49
2021/06/08 02:12:47;;;;;;;6.20;5.60;;;19.40;96.50;;;;;;4999457;28;20461;-46
2021/06/08 02:15:15;;;;;;;6.90;6.10;;;19.40;96.70;;;;;;4999561;28;20441;-47
2021/06/08 02:17:44;;;;;;;7.63;5.97;;;19.40;97.20;;;;;;4999784;28;20449;-48
2021/06/08 02:20:16;;;;;;;6.37;5.77;;;19.30;97.70;;;;;;4999571;28;20948;-46
2021/06/08 02:22:45;;;;;;;5.70;5.10;;;19.30;98.20;;;;;;4998905;28;20465;-49
2021/06/08 02:25:15;;;;;;;6.80;6.10;;;19.30;98.60;;;;;;4998994;28;20481;-51
2021/06/08 02:27:43;;;;;;;8.30;6.37;;;19.20;99.20;;;;;;4999077;28;20773;-50
2021/06/08 02:30:10;;;;;;;6.97;6.37;;;19.20;99.60;;;;;;4998813;28;20468;-48
2021/06/08 02:32:40;;;;;;;6.93;6.10;;;19.20;99.80;;;;;;4998884;28;20446;-51
2021/06/08 02:35:08;;;;;;;6.97;6.23;;;19.20;99.90;;;;;;4998927;28;20446;-48
2021/06/08 02:37:35;;;;;;;7.17;6.03;;;19.20;99.90;;;;;;4998548;28;20477;-46
2021/06/08 02:40:04;;;;;;;6.53;5.80;;;19.10;99.90;;;;;;4998612;28;20818;-53
2021/06/08 02:42:30;;;;;;;8.30;6.70;;;19.10;99.90;;;;;;4998525;28;20456;-47
2021/06/08 02:44:58;;;;;;;8.00;7.10;;;19.10;99.90;;;;;;4998786;28;21018;-53
2021/06/08 02:47:25;;;;;;;11.57;7.10;;;19.00;99.90;;;;;;4998328;28;20449;-48
2021/06/08 02:49:52;;;;;;;6.93;5.80;;;19.00;99.90;;;;;;4998606;28;20446;-51
2021/06/08 02:52:20;;;;;;;8.77;6.10;;;19.00;99.90;;;;;;4998845;28;20521;-48
2021/06/08 02:54:49;;;;;;;6.67;6.07;;;19.00;99.90;;;;;;4998494;28;20458;-50
2021/06/08 02:57:16;;;;;;;7.13;6.43;;;19.00;99.90;;;;;;4998463;28;20453;-51
2021/06/08 02:59:47;;;;;;;8.87;7.07;;;19.10;99.90;;;;;;4998831;28;20441;-54
2021/06/08 03:02:17;;;;;;;6.87;6.17;;;19.00;99.90;;;;;;4998978;28;20434;-45
2021/06/08 03:04:48;;;;;;;7.67;5.83;;;19.10;99.90;;;;;;4999089;28;20482;-46
2021/06/08 03:07:17;;;;;;;12.00;6.80;;;19.10;99.90;;;;;;4999045;28;20462;-48
2021/06/08 03:09:50;;;;;;;9.03;7.10;;;19.00;99.90;;;;;;4998946;28;20454;-48
2021/06/08 03:12:19;;;;;;;11.13;6.67;;;19.00;99.90;;;;;;4998618;28;20481;-53
2021/06/08 03:14:48;;;;;;;14.07;6.73;;;19.00;99.90;;;;;;4999025;28;20453;-48
2021/06/08 03:17:18;;;;;;;10.67;6.40;;;19.00;99.90;;;;;;4997917;28;20477;-49
2021/06/08 03:19:47;;;;;;;7.70;6.90;;;19.00;99.90;;;;;;4999088;28;20461;-54
2021/06/08 03:22:19;;;;;;;6.77;6.07;;;19.00;99.90;;;;;;4998844;28;20442;-54
2021/06/08 03:24:51;;;;;;;14.23;7.33;;;19.00;99.90;;;;;;4997962;28;20545;-49
2021/06/08 03:27:19;;;;;;;7.07;6.37;;;19.00;99.90;;;;;;4998145;28;20430;-50
2021/06/08 03:29:46;;;;;;;7.20;6.10;;;19.00;99.90;;;;;;4998193;28;20461;-47
2021/06/08 03:32:15;;;;;;;8.53;6.40;;;19.00;99.90;;;;;;4998837;28;20504;-50
2021/06/08 03:34:42;;;;;;;7.30;6.10;;;19.00;99.90;;;;;;4998509;28;20442;-48
2021/06/08 03:37:09;;;;;;;8.10;5.70;;;19.00;99.90;;;;;;4998115;28;20500;-47
2021/06/08 03:39:36;;;;;;;8.47;6.20;;;19.00;99.90;;;;;;4998176;28;20745;-48
2021/06/08 03:42:05;;;;;;;7.87;6.43;;;19.00;99.90;;;;;;4997902;28;20453;-54
2021/06/08 03:44:33;;;;;;;8.03;7.03;;;19.00;99.90;;;;;;4997390;28;20450;-53
2021/06/08 03:47:00;;;;;;;8.23;7.07;;;19.00;99.90;;;;;;4998448;28;20446;-50
2021/06/08 03:49:28;;;;;;;8.57;6.90;;;18.90;99.90;;;;;;4998471;28;20446;-52
2021/06/08 03:51:55;;;;;;;8.50;7.00;;;18.90;99.90;;;;;;4998394;28;20809;-49
2021/06/08 03:54:22;;;;;;;9.53;7.00;;;18.90;99.90;;;;;;4998157;28;20456;-51
2021/06/08 03:56:52;;;;;;;6.20;5.60;;;19.00;99.90;;;;;;4998042;28;20441;-52
2021/06/08 03:59:21;;;;;;;7.90;7.10;;;19.00;99.90;;;;;;5001659;28;20489;-48
2021/06/08 04:01:48;;;;;;;7.13;6.23;;;19.00;99.90;;;;;;5002059;28;20473;-51
2021/06/08 04:04:15;;;;;;;6.67;6.03;;;19.00;99.90;;;;;;5002201;28;20446;-45
2021/06/08 04:06:43;;;;;;;12.90;7.37;;;19.00;99.90;;;;;;5001755;28;20489;-49
2021/06/08 04:09:10;;;;;;;8.20;6.70;;;19.00;99.90;;;;;;5001980;28;20446;-46
2021/06/08 04:11:37;;;;;;;10.20;6.63;;;19.10;99.90;;;;;;5002193;28;20920;-48
2021/06/08 04:14:04;;;;;;;6.93;6.23;;;19.10;99.90;;;;;;5001266;28;20460;-50
2021/06/08 04:16:30;;;;;;;7.60;6.73;;;19.10;99.90;;;;;;5002563;28;20853;-53
2021/06/08 04:18:59;;;;;;;16.40;8.23;;;19.10;99.90;;;;;;5001645;28;20446;-45
2021/06/08 04:21:26;;;;;;;9.00;7.57;;;19.10;99.90;;;;;;5001858;28;20446;-51
2021/06/08 04:23:57;;;;;;;12.20;7.77;;;19.10;99.90;;;;;;5001348;28;20454;-46
2021/06/08 04:26:24;;;;;;;10.10;7.00;;;19.20;99.90;;;;;;5001620;28;20500;-46
2021/06/08 04:28:51;;;;;;;9.63;7.30;;;19.20;99.90;;;;;;5001795;28;20445;-50
2021/06/08 04:31:17;;;;;;;7.67;6.57;;;19.20;99.90;;;;;;5001568;28;20449;-47
2021/06/08 04:33:45;;;;;;;9.00;8.13;;;19.20;99.90;;;;;;5001872;28;20452;-47
2021/06/08 04:36:11;;;;;;;7.97;7.17;;;19.20;99.90;;;;;;5001151;28;20461;-48
2021/06/08 04:38:38;;;;;;;8.40;7.60;;;19.30;99.90;;;;;;5001002;28;20489;-49
2021/06/08 04:41:07;;;;;;;7.37;6.67;;;19.30;99.90;;;;;;5001802;28;20557;-53
2021/06/08 04:43:35;;;;;;;12.43;7.20;;;19.40;99.90;;;;;;5001006;28;20512;-44
2021/06/08 04:46:03;;;;;;;9.13;7.07;;;19.40;99.90;;;;;;5001596;28;20543;-47
2021/06/08 04:48:30;;;;;;;8.30;7.27;;;19.40;99.90;;;;;;5001375;28;20477;-48
2021/06/08 04:50:56;;;;;;;9.27;7.17;;;19.50;99.90;;;;;;5001495;28;20489;-46
2021/06/08 04:53:23;;;;;;;9.90;8.40;;;19.50;99.90;;;;;;5002221;28;20450;-51
2021/06/08 04:55:49;;;;;;;8.20;6.80;;;19.60;99.90;;;;;;5002363;28;20924;-52
2021/06/08 04:58:18;;;;;;;8.30;7.53;;;19.70;99.90;;;;;;5002118;28;20458;-49
2021/06/08 05:00:54;;;;;;;8.03;7.30;;;19.70;99.90;;;;;;5001684;28;20434;-52
2021/06/08 05:03:23;;;;;;;8.07;7.27;;;19.80;99.90;;;;;;5001602;28;20502;-52
2021/06/08 05:05:55;;;;;;;9.37;7.70;;;19.80;99.90;;;;;;5001309;28;20474;-47
2021/06/08 05:08:26;;;;;;;13.80;8.03;;;19.90;99.90;;;;;;5001511;28;20446;-54
2021/06/08 05:10:57;;;;;;;8.60;7.83;;;19.90;99.90;;;;;;5001932;28;20430;-44
2021/06/08 05:13:26;;;;;;;10.60;7.70;;;20.00;99.90;;;;;;5001264;28;20458;-48
2021/06/08 05:15:54;;;;;;;12.30;7.80;;;20.10;99.90;;;;;;5001828;28;20449;-48
2021/06/08 05:18:21;;;;;;;10.63;7.40;;;20.10;99.90;;;;;;5000045;28;20449;-51
2021/06/08 05:20:48;;;;;;;9.40;8.00;;;20.20;99.90;;;;;;4998638;28;20508;-49
2021/06/08 05:23:16;;;;;;;10.93;8.40;;;20.30;99.90;;;;;;4999890;28;20808;-45
2021/06/08 05:25:43;;;;;;;12.80;8.60;;;20.30;99.90;;;;;;4998819;28;20625;-49
2021/06/08 05:28:10;;;;;;;10.10;7.00;;;20.40;99.90;;;;;;5000834;28;20769;-48
2021/06/08 05:30:40;;;;;;;11.03;7.30;;;20.50;99.90;;;;;;5000902;28;20462;-47
2021/06/08 05:33:06;;;;;;;15.80;7.90;;;20.50;99.90;;;;;;4999183;28;20454;-47
2021/06/08 05:35:32;;;;;;;9.57;7.30;;;20.60;99.90;;;;;;4997879;28;20459;-43
2021/06/08 05:38:06;;;;;;;8.33;7.27;;;20.70;99.90;;;;;;4998147;28;20902;-51
2021/06/08 05:40:35;;;;;;;9.17;7.80;;;20.70;99.90;;;;;;4998991;28;20446;-52
2021/06/08 05:43:01;;;;;;;8.30;7.50;;;20.80;99.90;;;;;;4996684;28;20450;-48
2021/06/08 05:45:30;;;;;;;9.00;7.93;;;20.80;99.90;;;;;;4998382;28;20540;-45
2021/06/08 05:47:58;;;;;;;8.20;7.30;;;20.90;99.90;;;;;;4998460;28;20438;-45
2021/06/08 05:50:24;;;;;;;10.70;7.03;;;21.00;99.90;;;;;;5003800;28;20462;-48
2021/06/08 05:52:53;;;;;;;14.03;8.13;;;21.10;99.90;;;;;;4998315;28;20481;-47
2021/06/08 05:55:23;;;;;;;11.77;7.47;;;21.20;99.90;;;;;;4997716;28;20450;-50
2021/06/08 05:57:50;;;;;;;13.33;7.60;;;21.40;99.90;;;;;;4996747;28;20462;-51
2021/06/08 06:00:16;;;;;;;7.70;7.00;;;21.50;99.90;;;;;;4996249;28;20450;-49
2021/06/08 06:02:44;;;;;;;9.60;8.47;;;21.70;99.90;;;;;;4996391;28;20509;-50
2021/06/08 06:05:12;;;;;;;7.30;6.60;;;21.90;99.90;;;;;;4996208;28;20485;-48
2021/06/08 06:07:39;;;;;;;8.97;8.07;;;22.00;99.90;;;;;;4996583;28;20461;-46
2021/06/08 06:10:06;;;;;;;9.43;7.40;;;22.10;99.90;;;;;;4992952;28;20486;-45
2021/06/08 06:12:35;;;;;;;10.67;7.33;;;22.20;99.90;;;;;;4978817;28;20517;-46
2021/06/08 06:15:04;;;;;;;9.13;7.00;;;22.40;99.90;;;;;;4978812;28;20462;-48
2021/06/08 06:17:35;;;;;;;8.83;7.23;;;22.60;99.90;;;;;;4978480;28;20466;-45
2021/06/08 06:20:02;;;;;;;8.17;7.37;;;22.70;99.90;;;;;;4977811;28;20470;-49
2021/06/08 06:22:30;;;;;;;7.90;7.10;;;22.90;99.90;;;;;;4977116;28;20781;-49
2021/06/08 06:24:56;;;;;;;10.60;7.63;;;23.10;99.90;;;;;;4976882;28;20463;-47
2021/06/08 06:27:23;;;;;;;9.67;6.47;;;23.20;99.90;;;;;;4976439;28;20510;-47
2021/06/08 06:29:51;;;;;;;9.03;8.23;;;23.40;99.90;;;;;;4976687;28;20463;-53
2021/06/08 06:32:20;;;;;;;8.33;7.17;;;23.50;99.90;;;;;;4982938;28;20470;-46
2021/06/08 06:34:46;;;;;;;11.10;7.43;;;23.60;99.90;;;;;;4989705;28;20485;-47
2021/06/08 06:37:13;;;;;;;10.63;7.43;;;23.70;99.90;;;;;;4985458;28;20538;-48
2021/06/08 06:39:45;;;;;;;7.77;6.97;;;23.80;99.90;;;;;;4987680;28;20481;-50
2021/06/08 06:42:13;;;;;;;8.60;6.87;;;24.00;99.90;;;;;;4984699;28;20467;-46
2021/06/08 06:44:41;;;;;;;8.37;7.60;;;24.20;99.50;;;;;;4975976;28;20918;-43
2021/06/08 06:47:08;;;;;;;12.87;7.93;;;24.20;98.90;;;;;;4983578;28;20482;-49
2021/06/08 06:49:35;;;;;;;11.47;9.30;;;24.30;98.50;;;;;;4984350;28;21278;-43
2021/06/08 06:52:02;;;;;;;10.30;7.40;;;24.40;98.50;;;;;;4977346;28;20816;-44
2021/06/08 06:54:30;;;;;;;9.77;8.77;;;24.40;97.30;;;;;;4988822;28;20461;-47
2021/06/08 06:56:59;;;;;;;13.03;7.63;;;24.50;97.10;;;;;;4984698;28;20449;-45
2021/06/08 06:59:26;;;;;;;10.60;6.93;;;24.70;96.00;;;;;;4981611;28;20570;-44
2021/06/08 07:01:53;;;;;;;8.70;7.90;;;24.90;95.50;;;;;;4979275;28;20941;-48
2021/06/08 07:04:23;;;;;;;15.80;9.07;;;24.90;94.60;;;;;;4988375;28;20508;-47
2021/06/08 07:06:51;;;;;;;8.57;6.93;;;25.10;94.90;;;;;;4977659;28;20577;-45
2021/06/08 07:09:23;;;;;;;8.13;7.07;;;25.30;94.20;;;;;;4983671;28;20450;-45
2021/06/08 07:11:53;;;;;;;11.30;7.70;;;25.40;93.00;;;;;;4987743;28;20450;-47
2021/06/08 07:14:22;;;;;;;13.10;7.80;;;25.40;92.40;;;;;;4977891;28;20470;-45
2021/06/08 07:16:50;;;;;;;16.27;7.80;;;25.40;92.70;;;;;;4983525;28;20453;-45
2021/06/08 07:19:19;;;;;;;11.63;7.60;;;26.20;91.80;;;;;;4987484;28;20446;-47
2021/06/08 07:21:46;;;;;;;7.40;6.70;;;27.40;87.50;;;;;;4984834;28;20960;-46
2021/06/08 07:24:13;;;;;;;10.40;6.90;;;28.70;80.00;;;;;;4981249;28;20463;-47
2021/06/08 07:26:41;;;;;;;8.80;7.60;;;29.90;74.90;;;;;;4987154;28;21023;-45
2021/06/08 07:29:09;;;;;;;7.93;7.13;;;31.00;67.90;;;;;;4980589;28;20454;-48
2021/06/08 07:31:46;;;;;;;9.90;7.20;;;32.20;62.80;;;;;;4984218;28;20493;-52
2021/06/08 07:34:20;;;;;;;12.17;7.33;;;33.60;56.20;;;;;;4987788;28;20540;-49
2021/06/08 07:36:48;;;;;;;7.20;6.60;;;34.50;53.10;;;;;;4983227;28;20446;-49
2021/06/08 07:39:22;;;;;;;6.73;5.97;;;35.60;49.80;;;;;;4990749;28;20478;-47
2021/06/08 07:41:54;;;;;;;7.63;7.07;;;36.40;46.00;;;;;;4992228;28;20450;-49
2021/06/08 07:44:28;;;;;;;6.63;5.90;;;37.10;44.70;;;;;;4994708;28;20460;-46
2021/06/08 07:46:57;;;;;;;8.13;7.23;;;37.40;42.80;;;;;;4983138;28;20490;-46
2021/06/08 07:49:24;;;;;;;8.10;7.30;;;37.60;42.10;;;;;;4983517;28;20860;-48
2021/06/08 07:51:52;;;;;;;8.60;7.70;;;37.90;41.50;;;;;;4979140;28;20513;-48
2021/06/08 07:54:22;;;;;;;18.97;7.27;;;38.10;40.90;;;;;;4995795;28;20445;-53
2021/06/08 07:56:51;;;;;;;13.93;6.50;;;38.30;39.70;;;;;;4988643;28;20472;-52
2021/06/08 07:59:18;;;;;;;15.20;7.40;;;38.40;38.30;;;;;;4992329;28;20461;-51
2021/06/08 08:01:45;;;;;;;6.37;5.40;;;38.40;38.50;;;;;;4991052;28;20465;-50
2021/06/08 08:04:18;;;;;;;6.87;5.77;;;38.60;37.80;;;;;;4983675;28;20462;-49
2021/06/08 08:06:47;;;;;;;7.80;6.63;;;38.60;37.20;;;;;;4979524;28;20538;-48
2021/06/08 08:09:16;;;;;;;7.40;5.90;;;38.40;37.70;;;;;;4982455;28;20796;-47
2021/06/08 08:11:43;;;;;;;7.07;5.97;;;38.30;37.60;;;;;;4994532;28;20470;-51
2021/06/08 08:14:12;;;;;;;12.73;6.53;;;37.90;38.10;;;;;;4986403;28;20456;-47
2021/06/08 08:16:41;;;;;;;7.83;7.13;;;37.70;38.00;;;;;;4986932;28;20447;-48
2021/06/08 08:19:07;;;;;;;6.60;6.00;;;37.80;37.90;;;;;;4978004;28;20794;-50
2021/06/08 08:21:35;;;;;;;6.10;5.50;;;38.00;36.60;;;;;;4989376;28;20534;-45
2021/06/08 08:24:01;;;;;;;9.30;5.03;;;37.90;36.00;;;;;;4991223;28;20456;-47
2021/06/08 08:26:28;;;;;;;5.43;5.03;;;38.10;35.80;;;;;;4981450;28;20493;-50
2021/06/08 08:28:59;;;;;;;6.83;5.00;;;38.10;35.20;;;;;;4986947;28;20537;-53
2021/06/08 08:31:28;;;;;;;7.93;5.43;;;38.30;34.30;;;;;;4990850;28;20445;-52
2021/06/08 08:33:55;;;;;;;5.07;4.67;;;38.60;34.80;;;;;;4988679;28;20454;-52
2021/06/08 08:36:22;;;;;;;6.10;5.50;;;39.00;33.90;;;;;;4989114;28;20470;-51
2021/06/08 08:38:50;;;;;;;6.10;5.57;;;38.90;34.30;;;;;;4990124;28;20478;-48
2021/06/08 08:41:16;;;;;;;6.10;5.50;;;38.80;33.90;;;;;;4995285;28;20808;-52
2021/06/08 08:43:45;;;;;;;6.30;5.70;;;38.90;34.00;;;;;;4991988;28;20945;-46
2021/06/08 08:46:12;;;;;;;6.83;5.53;;;38.80;34.00;;;;;;4981544;28;20494;-48
2021/06/08 08:48:40;;;;;;;6.60;6.00;;;39.10;33.00;;;;;;4990328;28;20451;-50
2021/06/08 08:51:07;;;;;;;5.73;5.30;;;39.00;33.80;;;;;;4989501;28;20450;-52
2021/06/08 08:53:35;;;;;;;6.10;5.50;;;38.90;34.30;;;;;;4989027;28;20466;-51
2021/06/08 08:56:03;;;;;;;5.93;5.43;;;38.90;33.90;;;;;;4984666;28;20446;-50
2021/06/08 08:58:30;;;;;;;5.43;5.03;;;38.70;34.20;;;;;;4977683;28;20458;-50
2021/06/08 09:00:57;;;;;;;6.47;5.97;;;38.60;34.50;;;;;;4981596;28;20473;-47
2021/06/08 09:03:25;;;;;;;6.70;5.93;;;38.60;34.70;;;;;;4989441;28;20445;-48
2021/06/08 09:05:55;;;;;;;6.77;6.10;;;38.70;34.20;;;;;;4986119;28;20593;-52
2021/06/08 09:08:23;;;;;;;6.00;5.50;;;38.90;34.00;;;;;;4984848;28;20518;-49
2021/06/08 09:10:50;;;;;;;5.87;5.37;;;38.70;34.00;;;;;;4977548;28;20824;-49
2021/06/08 09:13:18;;;;;;;5.37;4.97;;;38.80;34.30;;;;;;4981934;28;20455;-49
2021/06/08 09:15:45;;;;;;;8.53;6.03;;;39.10;34.30;;;;;;4989027;28;20507;-49
2021/06/08 09:18:12;;;;;;;6.57;5.97;;;39.20;34.20;;;;;;4985739;28;20465;-52
2021/06/08 09:20:42;;;;;;;9.20;5.37;;;39.10;34.50;;;;;;4993605;28;20512;-49
2021/06/08 09:23:10;;;;;;;9.13;5.50;;;39.30;33.80;;;;;;4985861;28;20462;-48
2021/06/08 09:25:47;;;;;;;6.30;5.80;;;39.20;33.30;;;;;;4979159;28;20546;-45
2021/06/08 09:28:25;;;;;;;6.30;5.77;;;39.20;33.80;;;;;;4987306;28;20454;-48
2021/06/08 09:30:59;;;;;;;6.30;5.70;;;39.00;34.80;;;;;;4982050;28;20458;-49
2021/06/08 09:33:27;;;;;;;6.33;5.53;;;39.00;34.00;;;;;;4978530;28;20465;-46
2021/06/08 09:35:56;;;;;;;6.77;6.27;;;38.90;34.80;;;;;;4981878;28;20537;-51
2021/06/08 09:38:35;;;;;;;6.13;5.70;;;38.90;34.80;;;;;;4989194;28;20583;-49
2021/06/08 09:41:13;;;;;;;5.57;5.17;;;38.70;34.50;;;;;;4981405;28;20453;-51
2021/06/08 09:43:59;;;;;;;6.33;5.83;;;38.70;34.90;;;;;;4983014;28;20463;-46
2021/06/08 09:46:32;;;;;;;10.90;5.97;;;38.10;35.30;;;;;;4988243;28;20496;-47
2021/06/08 09:49:01;;;;;;;7.13;6.10;;;37.80;35.70;;;;;;4981426;28;20807;-48
2021/06/08 09:51:47;;;;;;;10.53;5.97;;;37.60;35.70;;;;;;4991493;28;20480;-44
2021/06/08 09:54:29;;;;;;;7.37;6.20;;;37.60;35.70;;;;;;4981748;28;20763;-47
2021/06/08 09:57:11;;;;;;;6.60;5.93;;;36.80;36.00;;;;;;4991318;28;21004;-47
2021/06/08 09:59:45;;;;;;;7.00;6.03;;;36.30;36.90;;;;;;4977916;28;20542;-45
2021/06/08 10:02:34;;;;;;;8.37;6.50;;;35.40;38.30;;;;;;4981536;28;20506;-47
2021/06/08 10:05:16;;;;;;;6.60;6.00;;;34.50;38.90;;;;;;4986857;28;20493;-47
2021/06/08 10:07:43;;;;;;;7.23;6.23;;;33.90;40.50;;;;;;4975687;28;20958;-51
2021/06/08 10:10:11;;;;;;;8.40;6.47;;;33.60;41.50;;;;;;4985448;28;20496;-46
2021/06/08 10:12:55;;;;;;;6.60;6.00;;;33.50;41.40;;;;;;4989758;28;20500;-48
2021/06/08 10:15:31;;;;;;;5.67;5.20;;;33.20;41.40;;;;;;4986349;28;20454;-45
2021/06/08 10:18:03;;;;;;;7.73;5.67;;;32.70;42.00;;;;;;4984674;28;20469;-51
2021/06/08 10:20:32;;;;;;;8.43;6.40;;;32.50;43.00;;;;;;4984548;28;20458;-47
2021/06/08 10:23:04;;;;;;;6.53;5.93;;;32.50;42.70;;;;;;4988519;28;21045;-48
2021/06/08 10:25:30;;;;;;;6.43;5.60;;;32.60;42.80;;;;;;4981571;28;20928;-48
2021/06/08 10:27:58;;;;;;;6.93;6.20;;;32.80;42.60;;;;;;4981953;28;20463;-52
2021/06/08 10:30:26;;;;;;;10.07;7.27;;;32.90;43.80;;;;;;4981780;28;20462;-49
2021/06/08 10:32:53;;;;;;;9.23;6.13;;;33.20;42.60;;;;;;4988335;28;20506;-50
2021/06/08 10:35:19;;;;;;;6.53;5.93;;;33.30;42.40;;;;;;4984821;28;20544;-49
2021/06/08 10:37:47;;;;;;;6.73;6.13;;;33.00;42.10;;;;;;4982976;28;20454;-48
2021/06/08 10:40:14;;;;;;;6.60;6.10;;;32.80;42.40;;;;;;4991364;28;20966;-47
2021/06/08 10:42:41;;;;;;;6.03;5.43;;;32.60;43.30;;;;;;4992502;28;20485;-44
2021/06/08 10:45:10;;;;;;;6.03;5.50;;;32.40;43.80;;;;;;4978813;28;20461;-47
2021/06/08 10:47:43;;;;;;;6.70;6.10;;;32.00;44.50;;;;;;4982987;28;20482;-51
2021/06/08 10:50:26;;;;;;;6.27;5.77;;;31.70;44.50;;;;;;4983925;28;20925;-49
2021/06/08 10:52:56;;;;;;;6.27;5.80;;;31.30;45.60;;;;;;4978515;28;20540;-46
2021/06/08 10:55:34;;;;;;;8.47;6.33;;;31.30;46.70;;;;;;4980584;28;20459;-50
2021/06/08 10:58:01;;;;;;;7.70;6.10;;;31.40;46.30;;;;;;4982722;28;20519;-51
2021/06/08 11:00:52;;;;;;;10.80;7.37;;;31.50;46.50;;;;;;4980678;28;20513;-49
2021/06/08 11:03:52;;;;;;;7.20;6.03;;;31.40;46.20;;;;;;4986099;28;20947;-48
2021/06/08 11:06:45;;;;;;;7.57;6.87;;;31.20;46.60;;;;;;4982294;28;20521;-46
2021/06/08 11:09:13;;;;;;;7.00;6.13;;;31.20;47.60;;;;;;4991934;28;20461;-48
2021/06/08 11:11:49;;;;;;;6.37;5.87;;;31.20;46.60;;;;;;4981911;28;20541;-48
2021/06/08 11:14:45;;;;;;;7.70;7.10;;;31.30;47.00;;;;;;4980734;28;21041;-46
2021/06/08 11:17:13;;;;;;;7.30;6.70;;;31.00;47.30;;;;;;4988644;28;20454;-53
2021/06/08 11:19:51;;;;;;;8.13;6.10;;;30.60;48.00;;;;;;4975016;28;20447;-54
2021/06/08 11:22:19;;;;;;;7.47;6.77;;;30.40;48.60;;;;;;4983280;28;20464;-49
2021/06/08 11:24:47;;;;;;;7.90;7.20;;;29.80;49.40;;;;;;4976089;28;20472;-51
2021/06/08 11:27:13;;;;;;;10.80;6.07;;;29.40;50.80;;;;;;4983342;28;20493;-52
2021/06/08 11:29:46;;;;;;;7.13;6.43;;;29.10;51.60;;;;;;4982225;28;20461;-51
2021/06/08 11:32:43;;;;;;;7.57;6.57;;;28.90;51.90;;;;;;4987815;28;20470;-51
2021/06/08 11:35:16;;;;;;;7.17;6.47;;;28.60;52.70;;;;;;4982619;28;20902;-49
2021/06/08 11:37:51;;;;;;;7.27;6.57;;;28.40;53.00;;;;;;4986200;28;20592;-47
2021/06/08 11:40:54;;;;;;;7.70;6.23;;;28.30;53.60;;;;;;4974915;28;20817;-48
2021/06/08 11:44:00;;;;;;;6.87;6.27;;;28.10;53.90;;;;;;4980335;28;20446;-49
2021/06/08 11:46:35;;;;;;;7.40;6.70;;;28.20;54.10;;;;;;4980938;28;20485;-53
2021/06/08 11:49:11;;;;;;;8.00;7.30;;;28.30;54.30;;;;;;4975185;28;20478;-49
2021/06/08 11:51:41;;;;;;;9.60;7.17;;;28.60;54.30;;;;;;4986109;28;20461;-50
2021/06/08 11:54:11;;;;;;;7.33;6.73;;;29.20;54.00;;;;;;4983190;28;20911;-49
2021/06/08 11:56:52;;;;;;;7.10;6.50;;;29.60;53.40;;;;;;4990559;28;20549;-47
2021/06/08 11:59:22;;;;;;;7.43;6.80;;;29.90;52.20;;;;;;4991656;28;20441;-53
2021/06/08 12:01:50;;;;;;;7.07;6.47;;;30.00;51.30;;;;;;4980561;28;20536;-47
2021/06/08 12:04:17;;;;;;;7.63;6.83;;;30.10;51.00;;;;;;4992267;28;20489;-49
2021/06/08 12:07:06;;;;;;;8.97;6.93;;;30.10;51.70;;;;;;4975211;28;20498;-49
2021/06/08 12:09:42;;;;;;;7.57;6.87;;;29.90;51.10;;;;;;4978812;28;20829;-48
2021/06/08 12:12:12;;;;;;;7.60;6.70;;;29.50;51.30;;;;;;4979710;28;20438;-46
2021/06/08 12:14:48;;;;;;;8.70;6.90;;;29.30;52.60;;;;;;4984855;28;20466;-46
2021/06/08 12:17:15;;;;;;;9.13;7.10;;;29.10;52.30;;;;;;4984285;28;20439;-47
2021/06/08 12:19:42;;;;;;;7.30;6.67;;;28.90;52.60;;;;;;4982724;28;20914;-46
2021/06/08 12:22:22;;;;;;;7.97;7.20;;;28.80;52.30;;;;;;4989408;28;20517;-47
2021/06/08 12:24:59;;;;;;;6.80;6.20;;;28.80;52.70;;;;;;4980092;28;20557;-45
2021/06/08 12:27:38;;;;;;;10.50;6.17;;;28.70;53.40;;;;;;4992079;28;20486;-48
2021/06/08 12:30:08;;;;;;;9.37;6.30;;;28.70;53.30;;;;;;4987892;28;21072;-48
2021/06/08 12:32:34;;;;;;;6.50;5.90;;;28.70;52.60;;;;;;4989419;28;20810;-50
2021/06/08 12:35:01;;;;;;;6.97;6.37;;;28.70;53.00;;;;;;4989673;28;20482;-45
2021/06/08 12:37:29;;;;;;;6.90;6.20;;;28.70;52.20;;;;;;4982086;28;20828;-47
2021/06/08 12:39:57;;;;;;;6.77;6.23;;;28.90;52.60;;;;;;4984247;28;20509;-47
2021/06/08 12:42:25;;;;;;;7.10;6.50;;;29.10;52.60;;;;;;4989213;28;20812;-47
2021/06/08 12:44:52;;;;;;;9.13;6.90;;;29.20;52.10;;;;;;4979630;28;20900;-52
2021/06/08 12:47:22;;;;;;;14.27;7.90;;;29.20;52.20;;;;;;4989679;28;20904;-50
2021/06/08 12:49:49;;;;;;;6.50;6.00;;;29.20;52.00;;;;;;4984717;28;20460;-50
2021/06/08 12:52:18;;;;;;;7.13;6.53;;;29.20;51.90;;;;;;4979129;28;20451;-51
2021/06/08 12:54:48;;;;;;;6.57;6.03;;;29.20;51.40;;;;;;4985815;28;20683;-50
2021/06/08 12:57:24;;;;;;;6.47;5.87;;;29.20;51.60;;;;;;4984953;28;20446;-48
2021/06/08 12:59:53;;;;;;;6.87;6.17;;;29.30;51.00;;;;;;4986132;28;20481;-48